KADG/ADG METAR and TAF weather

Enter ICAO airport designator
Station Type Date Time Source
KADG METAR 2018/10/16 20:53 UTC NOAA

KADG 162053Z AUTO 26014G23KT 10SM CLR 12/M03 A3003 RMK AO2 SLP175 T01221033 56024 TSNO


Station Type Date Time Source
KADG Decoded METAR 2018/10/16 20:53 UTC NOAA

ADRIAN LENAWEE COUNTY AIRPORT, MI, United States (KADG) 41-52N 84-05W 241M
Oct 16, 2018 - 04:53 PM EDT / 2018.10.16 2053 UTC
Wind: from the W (260 degrees) at 16 MPH (14 KT) gusting to 26 MPH (23 KT):0
Visibility: 10 mile(s):0
Sky conditions: clear
Temperature: 54.0 F (12.2 C)
Dew Point: 26.1 F (-3.3 C)
Relative Humidity: 33%
Pressure (altimeter): 30.03 in. Hg (1016 hPa)
Pressure tendency: 0.07 inches (2.4 hPa) lower than three hours ago
ob: KADG 162053Z AUTO 26014G23KT 10SM CLR 12/M03 A3003 RMK AO2 SLP175 T01221033 56024 TSNO
cycle: 21

Station Type Date Time Source
KADG TAF UTC NOAA

Error!


Example: see airport list